sensor_id;sensor_type;location;lat;lon;timestamp;P1;durP1;ratioP1;P2;durP2;ratioP2
28296;SDS011;62078;49.366;8.172;2023-03-20T00:02:02;2.75;;;1.00;;
28296;SDS011;62078;49.366;8.172;2023-03-20T00:04:29;6.25;;;1.52;;
28296;SDS011;62078;49.366;8.172;2023-03-20T00:06:55;3.00;;;1.00;;
28296;SDS011;62078;49.366;8.172;2023-03-20T00:09:21;2.85;;;1.00;;
28296;SDS011;62078;49.366;8.172;2023-03-20T00:11:47;2.80;;;1.40;;
28296;SDS011;62078;49.366;8.172;2023-03-20T00:14:15;2.63;;;1.13;;
28296;SDS011;62078;49.366;8.172;2023-03-20T00:16:45;2.92;;;1.15;;
28296;SDS011;62078;49.366;8.172;2023-03-20T00:19:24;3.78;;;1.33;;
28296;SDS011;62078;49.366;8.172;2023-03-20T00:21:52;2.75;;;1.20;;
28296;SDS011;62078;49.366;8.172;2023-03-20T00:24:19;3.85;;;1.10;;
28296;SDS011;62078;49.366;8.172;2023-03-20T00:26:45;4.10;;;1.13;;
28296;SDS011;62078;49.366;8.172;2023-03-20T00:29:20;2.80;;;1.05;;
28296;SDS011;62078;49.366;8.172;2023-03-20T00:31:52;3.40;;;1.20;;
28296;SDS011;62078;49.366;8.172;2023-03-20T00:34:20;2.30;;;0.93;;
28296;SDS011;62078;49.366;8.172;2023-03-20T00:36:47;3.22;;;0.80;;
28296;SDS011;62078;49.366;8.172;2023-03-20T00:39:13;5.70;;;1.40;;
28296;SDS011;62078;49.366;8.172;2023-03-20T00:41:52;4.43;;;1.10;;
28296;SDS011;62078;49.366;8.172;2023-03-20T00:44:32;5.95;;;1.20;;
28296;SDS011;62078;49.366;8.172;2023-03-20T00:47:14;3.47;;;1.08;;
28296;SDS011;62078;49.366;8.172;2023-03-20T00:49:43;4.05;;;1.13;;
28296;SDS011;62078;49.366;8.172;2023-03-20T00:52:10;4.07;;;1.10;;
28296;SDS011;62078;49.366;8.172;2023-03-20T00:54:36;2.65;;;1.45;;
28296;SDS011;62078;49.366;8.172;2023-03-20T00:57:04;5.13;;;1.15;;
28296;SDS011;62078;49.366;8.172;2023-03-20T00:59:34;5.32;;;1.20;;
28296;SDS011;62078;49.366;8.172;2023-03-20T01:02:02;3.42;;;1.13;;
28296;SDS011;62078;49.366;8.172;2023-03-20T01:04:35;6.30;;;1.30;;
28296;SDS011;62078;49.366;8.172;2023-03-20T01:07:03;3.28;;;1.05;;
28296;SDS011;62078;49.366;8.172;2023-03-20T01:09:29;2.30;;;0.80;;
28296;SDS011;62078;49.366;8.172;2023-03-20T01:11:54;4.22;;;0.80;;
28296;SDS011;62078;49.366;8.172;2023-03-20T01:14:20;4.50;;;1.13;;
28296;SDS011;62078;49.366;8.172;2023-03-20T01:16:46;3.80;;;1.13;;
28296;SDS011;62078;49.366;8.172;2023-03-20T01:19:13;3.13;;;1.10;;
28296;SDS011;62078;49.366;8.172;2023-03-20T01:21:39;3.30;;;1.60;;
28296;SDS011;62078;49.366;8.172;2023-03-20T01:24:06;3.08;;;1.15;;
28296;SDS011;62078;49.366;8.172;2023-03-20T01:26:36;4.30;;;1.02;;
28296;SDS011;62078;49.366;8.172;2023-03-20T01:29:04;4.60;;;1.42;;
28296;SDS011;62078;49.366;8.172;2023-03-20T01:31:45;2.75;;;0.93;;
28296;SDS011;62078;49.366;8.172;2023-03-20T01:34:11;3.90;;;1.40;;
28296;SDS011;62078;49.366;8.172;2023-03-20T01:36:37;3.88;;;1.05;;
28296;SDS011;62078;49.366;8.172;2023-03-20T01:39:04;2.42;;;1.30;;
28296;SDS011;62078;49.366;8.172;2023-03-20T01:41:30;4.30;;;1.10;;
28296;SDS011;62078;49.366;8.172;2023-03-20T01:43:57;2.17;;;0.98;;
28296;SDS011;62078;49.366;8.172;2023-03-20T01:46:26;2.67;;;1.13;;
28296;SDS011;62078;49.366;8.172;2023-03-20T01:49:07;4.15;;;1.15;;
28296;SDS011;62078;49.366;8.172;2023-03-20T01:51:43;2.92;;;1.30;;
28296;SDS011;62078;49.366;8.172;2023-03-20T01:54:12;4.53;;;1.20;;
28296;SDS011;62078;49.366;8.172;2023-03-20T01:56:40;3.67;;;1.75;;
28296;SDS011;62078;49.366;8.172;2023-03-20T01:59:17;3.17;;;1.20;;
28296;SDS011;62078;49.366;8.172;2023-03-20T02:01:48;2.60;;;1.02;;
28296;SDS011;62078;49.366;8.172;2023-03-20T02:04:15;2.63;;;1.20;;
28296;SDS011;62078;49.366;8.172;2023-03-20T02:06:42;4.30;;;1.30;;
28296;SDS011;62078;49.366;8.172;2023-03-20T02:09:10;5.68;;;2.10;;
28296;SDS011;62078;49.366;8.172;2023-03-20T02:11:37;4.00;;;1.60;;
28296;SDS011;62078;49.366;8.172;2023-03-20T02:14:04;3.10;;;1.42;;
28296;SDS011;62078;49.366;8.172;2023-03-20T02:16:30;3.80;;;1.40;;
28296;SDS011;62078;49.366;8.172;2023-03-20T02:18:56;3.42;;;1.30;;
28296;SDS011;62078;49.366;8.172;2023-03-20T02:44:00;4.32;;;1.45;;
28296;SDS011;62078;49.366;8.172;2023-03-20T02:46:47;4.70;;;1.27;;
28296;SDS011;62078;49.366;8.172;2023-03-20T02:49:34;3.72;;;1.63;;
28296;SDS011;62078;49.366;8.172;2023-03-20T02:59:52;2.63;;;1.23;;
28296;SDS011;62078;49.366;8.172;2023-03-20T03:02:33;4.10;;;1.50;;
28296;SDS011;62078;49.366;8.172;2023-03-20T03:05:03;3.85;;;1.63;;
28296;SDS011;62078;49.366;8.172;2023-03-20T03:07:35;4.00;;;1.52;;
28296;SDS011;62078;49.366;8.172;2023-03-20T03:10:11;4.85;;;1.42;;
28296;SDS011;62078;49.366;8.172;2023-03-20T03:12:42;3.10;;;1.40;;
28296;SDS011;62078;49.366;8.172;2023-03-20T03:17:45;2.92;;;1.45;;
28296;SDS011;62078;49.366;8.172;2023-03-20T03:20:23;3.15;;;1.60;;
28296;SDS011;62078;49.366;8.172;2023-03-20T03:22:54;2.40;;;1.30;;
28296;SDS011;62078;49.366;8.172;2023-03-20T03:25:21;3.72;;;1.80;;
28296;SDS011;62078;49.366;8.172;2023-03-20T03:27:53;5.00;;;1.65;;
28296;SDS011;62078;49.366;8.172;2023-03-20T03:30:30;3.00;;;1.40;;
28296;SDS011;62078;49.366;8.172;2023-03-20T03:35:43;3.45;;;1.63;;
28296;SDS011;62078;49.366;8.172;2023-03-20T03:40:45;3.40;;;1.88;;
28296;SDS011;62078;49.366;8.172;2023-03-20T03:45:53;2.92;;;1.55;;
28296;SDS011;62078;49.366;8.172;2023-03-20T03:48:43;4.82;;;1.60;;
28296;SDS011;62078;49.366;8.172;2023-03-20T03:51:20;4.28;;;1.73;;
28296;SDS011;62078;49.366;8.172;2023-03-20T03:53:51;3.80;;;1.90;;
28296;SDS011;62078;49.366;8.172;2023-03-20T03:56:23;2.70;;;1.88;;
28296;SDS011;62078;49.366;8.172;2023-03-20T03:58:51;6.57;;;2.05;;
28296;SDS011;62078;49.366;8.172;2023-03-20T04:01:20;3.70;;;1.92;;
28296;SDS011;62078;49.366;8.172;2023-03-20T04:03:50;4.50;;;2.00;;
28296;SDS011;62078;49.366;8.172;2023-03-20T04:06:20;4.90;;;1.70;;
28296;SDS011;62078;49.366;8.172;2023-03-20T04:08:46;3.90;;;2.03;;
28296;SDS011;62078;49.366;8.172;2023-03-20T04:11:18;5.10;;;2.10;;
28296;SDS011;62078;49.366;8.172;2023-03-20T04:13:46;6.13;;;2.17;;
28296;SDS011;62078;49.366;8.172;2023-03-20T04:16:14;5.10;;;1.90;;
28296;SDS011;62078;49.366;8.172;2023-03-20T04:18:41;5.65;;;2.40;;
28296;SDS011;62078;49.366;8.172;2023-03-20T04:21:07;4.28;;;2.10;;
28296;SDS011;62078;49.366;8.172;2023-03-20T04:23:33;4.78;;;2.15;;
28296;SDS011;62078;49.366;8.172;2023-03-20T04:25:59;3.83;;;2.10;;
28296;SDS011;62078;49.366;8.172;2023-03-20T04:28:26;5.20;;;2.08;;
28296;SDS011;62078;49.366;8.172;2023-03-20T04:30:52;5.15;;;2.03;;
28296;SDS011;62078;49.366;8.172;2023-03-20T04:33:19;4.93;;;1.90;;
28296;SDS011;62078;49.366;8.172;2023-03-20T04:35:45;3.65;;;1.85;;
28296;SDS011;62078;49.366;8.172;2023-03-20T04:38:10;4.68;;;2.15;;
28296;SDS011;62078;49.366;8.172;2023-03-20T04:40:36;5.47;;;2.50;;
28296;SDS011;62078;49.366;8.172;2023-03-20T04:43:02;3.90;;;2.08;;
28296;SDS011;62078;49.366;8.172;2023-03-20T04:45:28;5.57;;;1.98;;
28296;SDS011;62078;49.366;8.172;2023-03-20T04:47:54;4.60;;;1.80;;
28296;SDS011;62078;49.366;8.172;2023-03-20T04:50:20;4.97;;;2.20;;
28296;SDS011;62078;49.366;8.172;2023-03-20T04:52:45;4.45;;;1.88;;
28296;SDS011;62078;49.366;8.172;2023-03-20T04:55:11;5.75;;;1.98;;
28296;SDS011;62078;49.366;8.172;2023-03-20T04:57:37;3.42;;;1.77;;
28296;SDS011;62078;49.366;8.172;2023-03-20T05:00:03;3.20;;;2.00;;
28296;SDS011;62078;49.366;8.172;2023-03-20T05:02:29;5.15;;;2.20;;
28296;SDS011;62078;49.366;8.172;2023-03-20T05:04:55;5.93;;;2.40;;
28296;SDS011;62078;49.366;8.172;2023-03-20T05:07:21;5.57;;;2.50;;
28296;SDS011;62078;49.366;8.172;2023-03-20T05:09:46;4.95;;;2.10;;
28296;SDS011;62078;49.366;8.172;2023-03-20T05:12:12;3.72;;;1.92;;
28296;SDS011;62078;49.366;8.172;2023-03-20T05:14:38;4.07;;;2.22;;
28296;SDS011;62078;49.366;8.172;2023-03-20T05:17:04;4.22;;;2.03;;
28296;SDS011;62078;49.366;8.172;2023-03-20T05:19:30;5.38;;;2.10;;
28296;SDS011;62078;49.366;8.172;2023-03-20T05:21:55;3.78;;;1.90;;
28296;SDS011;62078;49.366;8.172;2023-03-20T05:24:21;4.30;;;1.95;;
28296;SDS011;62078;49.366;8.172;2023-03-20T05:26:47;6.85;;;2.30;;
28296;SDS011;62078;49.366;8.172;2023-03-20T05:29:13;11.77;;;2.55;;
28296;SDS011;62078;49.366;8.172;2023-03-20T05:31:39;18.13;;;2.78;;
28296;SDS011;62078;49.366;8.172;2023-03-20T05:34:04;13.00;;;2.60;;
28296;SDS011;62078;49.366;8.172;2023-03-20T05:36:30;13.57;;;2.38;;
28296;SDS011;62078;49.366;8.172;2023-03-20T05:38:56;6.60;;;2.53;;
28296;SDS011;62078;49.366;8.172;2023-03-20T05:41:22;10.10;;;1.95;;
28296;SDS011;62078;49.366;8.172;2023-03-20T05:43:47;13.25;;;2.08;;
28296;SDS011;62078;49.366;8.172;2023-03-20T05:46:13;13.55;;;2.65;;
28296;SDS011;62078;49.366;8.172;2023-03-20T05:48:40;10.05;;;2.13;;
28296;SDS011;62078;49.366;8.172;2023-03-20T05:51:06;8.40;;;2.33;;
28296;SDS011;62078;49.366;8.172;2023-03-20T05:53:32;7.45;;;2.40;;
28296;SDS011;62078;49.366;8.172;2023-03-20T05:55:57;14.50;;;2.38;;
28296;SDS011;62078;49.366;8.172;2023-03-20T05:58:23;7.72;;;2.42;;
28296;SDS011;62078;49.366;8.172;2023-03-20T06:00:49;8.73;;;2.28;;
28296;SDS011;62078;49.366;8.172;2023-03-20T06:03:15;11.88;;;2.55;;
28296;SDS011;62078;49.366;8.172;2023-03-20T06:05:41;8.18;;;2.13;;
28296;SDS011;62078;49.366;8.172;2023-03-20T06:08:06;6.13;;;1.70;;
28296;SDS011;62078;49.366;8.172;2023-03-20T06:10:32;7.43;;;2.00;;
28296;SDS011;62078;49.366;8.172;2023-03-20T06:12:58;6.00;;;2.00;;
28296;SDS011;62078;49.366;8.172;2023-03-20T06:15:25;8.90;;;2.00;;
28296;SDS011;62078;49.366;8.172;2023-03-20T06:17:52;7.05;;;1.75;;
28296;SDS011;62078;49.366;8.172;2023-03-20T06:20:19;6.90;;;2.10;;
28296;SDS011;62078;49.366;8.172;2023-03-20T06:22:45;9.63;;;1.90;;
28296;SDS011;62078;49.366;8.172;2023-03-20T06:25:10;5.53;;;2.13;;
28296;SDS011;62078;49.366;8.172;2023-03-20T06:27:37;15.18;;;3.85;;
28296;SDS011;62078;49.366;8.172;2023-03-20T06:30:03;9.50;;;3.05;;
28296;SDS011;62078;49.366;8.172;2023-03-20T06:32:30;13.02;;;2.92;;
28296;SDS011;62078;49.366;8.172;2023-03-20T06:34:56;13.82;;;3.10;;
28296;SDS011;62078;49.366;8.172;2023-03-20T06:37:21;10.52;;;2.45;;
28296;SDS011;62078;49.366;8.172;2023-03-20T06:39:47;11.18;;;3.28;;
28296;SDS011;62078;49.366;8.172;2023-03-20T06:42:13;19.98;;;3.90;;
28296;SDS011;62078;49.366;8.172;2023-03-20T06:44:39;11.32;;;3.88;;
28296;SDS011;62078;49.366;8.172;2023-03-20T06:47:05;13.75;;;3.65;;
28296;SDS011;62078;49.366;8.172;2023-03-20T06:49:31;15.15;;;4.30;;
28296;SDS011;62078;49.366;8.172;2023-03-20T06:51:56;15.90;;;3.88;;
28296;SDS011;62078;49.366;8.172;2023-03-20T06:54:23;16.25;;;4.13;;
28296;SDS011;62078;49.366;8.172;2023-03-20T06:56:49;14.35;;;4.25;;
28296;SDS011;62078;49.366;8.172;2023-03-20T06:59:15;13.90;;;4.07;;
28296;SDS011;62078;49.366;8.172;2023-03-20T07:01:41;12.40;;;4.00;;
28296;SDS011;62078;49.366;8.172;2023-03-20T07:04:07;14.07;;;4.35;;
28296;SDS011;62078;49.366;8.172;2023-03-20T07:06:33;11.65;;;3.70;;
28296;SDS011;62078;49.366;8.172;2023-03-20T07:08:59;14.07;;;4.07;;
28296;SDS011;62078;49.366;8.172;2023-03-20T07:11:25;14.90;;;4.72;;
28296;SDS011;62078;49.366;8.172;2023-03-20T07:13:51;15.80;;;4.13;;
28296;SDS011;62078;49.366;8.172;2023-03-20T07:16:17;13.73;;;4.45;;
28296;SDS011;62078;49.366;8.172;2023-03-20T07:18:43;12.55;;;4.03;;
28296;SDS011;62078;49.366;8.172;2023-03-20T07:21:09;12.80;;;4.07;;
28296;SDS011;62078;49.366;8.172;2023-03-20T07:23:42;13.27;;;4.32;;
28296;SDS011;62078;49.366;8.172;2023-03-20T07:26:08;11.02;;;4.20;;
28296;SDS011;62078;49.366;8.172;2023-03-20T07:28:34;21.00;;;4.43;;
28296;SDS011;62078;49.366;8.172;2023-03-20T07:31:00;15.40;;;4.43;;
28296;SDS011;62078;49.366;8.172;2023-03-20T07:33:25;23.27;;;4.72;;
28296;SDS011;62078;49.366;8.172;2023-03-20T07:35:52;15.52;;;5.05;;
28296;SDS011;62078;49.366;8.172;2023-03-20T07:38:18;21.50;;;4.72;;
28296;SDS011;62078;49.366;8.172;2023-03-20T07:40:45;19.02;;;4.88;;
28296;SDS011;62078;49.366;8.172;2023-03-20T07:43:12;16.35;;;4.82;;
28296;SDS011;62078;49.366;8.172;2023-03-20T07:45:39;16.92;;;4.60;;
28296;SDS011;62078;49.366;8.172;2023-03-20T07:48:05;14.95;;;4.80;;
28296;SDS011;62078;49.366;8.172;2023-03-20T07:50:31;15.40;;;4.55;;
28296;SDS011;62078;49.366;8.172;2023-03-20T07:52:56;17.90;;;4.95;;
28296;SDS011;62078;49.366;8.172;2023-03-20T07:55:22;13.80;;;4.30;;
28296;SDS011;62078;49.366;8.172;2023-03-20T07:57:48;10.70;;;4.13;;
28296;SDS011;62078;49.366;8.172;2023-03-20T08:00:15;7.85;;;3.47;;
28296;SDS011;62078;49.366;8.172;2023-03-20T08:02:41;13.30;;;4.40;;
28296;SDS011;62078;49.366;8.172;2023-03-20T08:05:07;13.65;;;4.25;;
28296;SDS011;62078;49.366;8.172;2023-03-20T08:07:33;8.90;;;3.47;;
28296;SDS011;62078;49.366;8.172;2023-03-20T08:09:59;13.10;;;4.50;;
28296;SDS011;62078;49.366;8.172;2023-03-20T08:12:25;11.00;;;3.72;;
28296;SDS011;62078;49.366;8.172;2023-03-20T08:14:51;11.85;;;4.28;;
28296;SDS011;62078;49.366;8.172;2023-03-20T08:17:17;11.43;;;4.20;;
28296;SDS011;62078;49.366;8.172;2023-03-20T08:19:43;14.40;;;3.97;;
28296;SDS011;62078;49.366;8.172;2023-03-20T08:22:09;11.65;;;4.18;;
28296;SDS011;62078;49.366;8.172;2023-03-20T08:24:36;13.73;;;4.78;;
28296;SDS011;62078;49.366;8.172;2023-03-20T08:27:02;14.63;;;4.25;;
28296;SDS011;62078;49.366;8.172;2023-03-20T08:29:27;10.75;;;3.90;;
28296;SDS011;62078;49.366;8.172;2023-03-20T08:31:53;11.80;;;3.92;;
28296;SDS011;62078;49.366;8.172;2023-03-20T08:34:20;10.80;;;4.18;;
28296;SDS011;62078;49.366;8.172;2023-03-20T08:36:45;10.95;;;3.72;;
28296;SDS011;62078;49.366;8.172;2023-03-20T08:39:11;8.10;;;3.67;;
28296;SDS011;62078;49.366;8.172;2023-03-20T08:41:39;12.13;;;4.20;;
28296;SDS011;62078;49.366;8.172;2023-03-20T08:44:09;12.68;;;3.95;;
28296;SDS011;62078;49.366;8.172;2023-03-20T08:46:36;9.32;;;3.97;;
28296;SDS011;62078;49.366;8.172;2023-03-20T08:49:01;7.53;;;3.40;;
28296;SDS011;62078;49.366;8.172;2023-03-20T08:51:29;11.75;;;3.72;;
28296;SDS011;62078;49.366;8.172;2023-03-20T08:53:55;10.73;;;4.22;;
28296;SDS011;62078;49.366;8.172;2023-03-20T08:56:20;7.65;;;3.38;;
28296;SDS011;62078;49.366;8.172;2023-03-20T08:58:46;10.15;;;3.45;;
28296;SDS011;62078;49.366;8.172;2023-03-20T09:01:12;10.88;;;3.60;;
28296;SDS011;62078;49.366;8.172;2023-03-20T09:03:39;9.43;;;3.72;;
28296;SDS011;62078;49.366;8.172;2023-03-20T09:06:05;11.48;;;4.78;;
28296;SDS011;62078;49.366;8.172;2023-03-20T09:08:33;9.38;;;3.85;;
28296;SDS011;62078;49.366;8.172;2023-03-20T09:10:59;9.13;;;3.33;;
28296;SDS011;62078;49.366;8.172;2023-03-20T09:13:25;10.32;;;3.40;;
28296;SDS011;62078;49.366;8.172;2023-03-20T09:15:51;9.25;;;3.72;;
28296;SDS011;62078;49.366;8.172;2023-03-20T09:18:18;8.85;;;3.20;;
28296;SDS011;62078;49.366;8.172;2023-03-20T09:20:44;7.05;;;3.05;;
28296;SDS011;62078;49.366;8.172;2023-03-20T09:23:10;6.13;;;3.03;;
28296;SDS011;62078;49.366;8.172;2023-03-20T09:25:36;10.95;;;3.90;;
28296;SDS011;62078;49.366;8.172;2023-03-20T09:28:02;9.45;;;3.70;;
28296;SDS011;62078;49.366;8.172;2023-03-20T09:30:28;5.88;;;3.15;;
28296;SDS011;62078;49.366;8.172;2023-03-20T09:32:53;11.48;;;3.35;;
28296;SDS011;62078;49.366;8.172;2023-03-20T09:35:19;7.75;;;3.58;;
28296;SDS011;62078;49.366;8.172;2023-03-20T09:37:46;12.48;;;3.55;;
28296;SDS011;62078;49.366;8.172;2023-03-20T09:48:32;8.77;;;3.65;;
28296;SDS011;62078;49.366;8.172;2023-03-20T09:54:16;8.18;;;3.25;;
28296;SDS011;62078;49.366;8.172;2023-03-20T09:56:44;6.85;;;3.30;;
28296;SDS011;62078;49.366;8.172;2023-03-20T09:59:10;6.50;;;3.33;;
28296;SDS011;62078;49.366;8.172;2023-03-20T10:02:22;6.82;;;3.55;;
28296;SDS011;62078;49.366;8.172;2023-03-20T10:04:30;6.25;;;3.25;;
28296;SDS011;62078;49.366;8.172;2023-03-20T10:06:58;9.45;;;3.35;;
28296;SDS011;62078;49.366;8.172;2023-03-20T10:09:25;9.68;;;3.67;;
28296;SDS011;62078;49.366;8.172;2023-03-20T10:17:38;6.53;;;2.75;;
28296;SDS011;62078;49.366;8.172;2023-03-20T10:23:04;5.45;;;3.00;;
28296;SDS011;62078;49.366;8.172;2023-03-20T10:25:39;6.60;;;3.38;;
28296;SDS011;62078;49.366;8.172;2023-03-20T10:28:11;6.45;;;2.55;;
28296;SDS011;62078;49.366;8.172;2023-03-20T10:33:51;6.00;;;2.80;;
28296;SDS011;62078;49.366;8.172;2023-03-20T10:42:09;11.95;;;3.35;;
28296;SDS011;62078;49.366;8.172;2023-03-20T10:44:41;8.45;;;3.15;;
28296;SDS011;62078;49.366;8.172;2023-03-20T10:47:11;6.57;;;3.05;;
28296;SDS011;62078;49.366;8.172;2023-03-20T10:52:21;5.85;;;2.78;;
28296;SDS011;62078;49.366;8.172;2023-03-20T10:55:00;5.70;;;2.88;;
28296;SDS011;62078;49.366;8.172;2023-03-20T10:57:49;7.03;;;2.67;;
28296;SDS011;62078;49.366;8.172;2023-03-20T11:00:20;7.97;;;2.72;;
28296;SDS011;62078;49.366;8.172;2023-03-20T11:02:48;9.27;;;2.65;;
28296;SDS011;62078;49.366;8.172;2023-03-20T11:05:27;5.40;;;2.63;;
28296;SDS011;62078;49.366;8.172;2023-03-20T11:08:05;4.88;;;2.60;;
28296;SDS011;62078;49.366;8.172;2023-03-20T11:10:38;4.72;;;1.95;;
28296;SDS011;62078;49.366;8.172;2023-03-20T11:13:21;5.97;;;2.40;;
28296;SDS011;62078;49.366;8.172;2023-03-20T11:16:15;6.40;;;2.22;;
28296;SDS011;62078;49.366;8.172;2023-03-20T11:18:42;7.90;;;2.50;;
28296;SDS011;62078;49.366;8.172;2023-03-20T11:21:13;9.80;;;2.17;;
28296;SDS011;62078;49.366;8.172;2023-03-20T11:23:44;6.22;;;2.40;;
28296;SDS011;62078;49.366;8.172;2023-03-20T11:26:14;4.07;;;2.33;;
28296;SDS011;62078;49.366;8.172;2023-03-20T11:28:46;5.38;;;2.30;;
28296;SDS011;62078;49.366;8.172;2023-03-20T11:31:29;4.95;;;2.25;;
28296;SDS011;62078;49.366;8.172;2023-03-20T11:37:42;10.63;;;2.28;;
28296;SDS011;62078;49.366;8.172;2023-03-20T11:40:09;3.95;;;2.20;;
28296;SDS011;62078;49.366;8.172;2023-03-20T11:42:53;4.25;;;2.35;;
28296;SDS011;62078;49.366;8.172;2023-03-20T11:45:21;4.97;;;2.20;;
28296;SDS011;62078;49.366;8.172;2023-03-20T11:47:51;6.55;;;2.80;;
28296;SDS011;62078;49.366;8.172;2023-03-20T11:50:28;4.88;;;2.03;;
28296;SDS011;62078;49.366;8.172;2023-03-20T11:52:58;5.55;;;2.30;;
28296;SDS011;62078;49.366;8.172;2023-03-20T11:55:27;7.53;;;1.90;;
28296;SDS011;62078;49.366;8.172;2023-03-20T11:57:59;3.75;;;1.80;;
28296;SDS011;62078;49.366;8.172;2023-03-20T12:00:29;3.80;;;2.08;;
28296;SDS011;62078;49.366;8.172;2023-03-20T12:03:01;3.97;;;2.00;;
28296;SDS011;62078;49.366;8.172;2023-03-20T12:05:29;4.15;;;1.88;;
28296;SDS011;62078;49.366;8.172;2023-03-20T12:07:59;3.38;;;1.77;;
28296;SDS011;62078;49.366;8.172;2023-03-20T12:10:27;6.32;;;1.70;;
28296;SDS011;62078;49.366;8.172;2023-03-20T12:13:05;6.00;;;1.83;;
28296;SDS011;62078;49.366;8.172;2023-03-20T12:15:45;5.35;;;1.83;;
28296;SDS011;62078;49.366;8.172;2023-03-20T12:28:53;5.20;;;1.60;;
28296;SDS011;62078;49.366;8.172;2023-03-20T12:31:31;3.30;;;1.65;;
28296;SDS011;62078;49.366;8.172;2023-03-20T12:36:45;4.43;;;2.07;;
28296;SDS011;62078;49.366;8.172;2023-03-20T12:39:19;5.50;;;1.80;;
